Detalii statie VALKAPA [00001D0A]

Toti senzorii

Date Temperatura solului [C]Precipitatii [mm]Voltaj baterie [mV]Leaf Wetness [Min]HC Air temperature [C]HC Relative humidity [%]Punctul de roua [C]
medieminmaxsumaultimatimpmedieminmaxmediemediemin
2018-06-20 10:00:00 0 7138 27.02 26.31 28.07 54.91 17 16.6
2018-06-20 11:00:00 0 7226 28.39 27.24 29.55 50.24 16.8 16.1
2018-06-20 12:00:00 0 7226 29.56 28.55 30.69 45.77 16.3 15.1
2018-06-20 13:00:00 0 7226 30.72 29.79 31.63 39.71 15.1 14.3
2018-06-20 14:00:00 0 7216 31.48 30.82 32.4 38.03 15.2 14.5
2018-06-20 15:00:00 0 7226 32.01 30.62 32.94 35.7 14.6 14.1
2018-06-20 16:00:00 0 7226 30.99 29.98 32.22 38.28 14.8 14.2
2018-06-20 17:00:00 0 7196 30.29 29.67 31.26 40.9 15.2 14.3
2018-06-20 18:00:00 0 7226 30.45 29.31 31.46 41.65 15.7 14.8
2018-06-20 19:00:00 0 7216 30.18 29.23 31.31 40.72 15 14.7
2018-06-20 20:00:00 0 7060 28.35 26.76 29.2 47.61 15.9 15
2018-06-20 21:00:00 0 6884 24.91 24.28 26.32 60.6 16.6 16
2018-06-20 22:00:00 0 6884 22.95 21.24 24.4 69.73 16.8 16.1
2018-06-20 23:00:00 0 6874 20.3 19.82 20.87 90.94 18.6 18.3
2018-06-21 00:00:00 0 6864 19.6 19.11 20.08 95.51 18.7 18.3
2018-06-21 01:00:00 0 6844 19.03 18.72 19.59 99.42 18.8 18.7
2018-06-21 02:00:00 0 6834 18.31 17.92 18.63 100 18.2 17.9
2018-06-21 03:00:00 0 6826 17.75 17.36 18 100 17.7 17.3
2018-06-21 04:00:00 0 6826 17.26 16.67 17.65 100 17.2 16.6
2018-06-21 05:00:00 0 6816 16.56 16.29 16.86 100 16.5 16.2
2018-06-21 06:00:00 0 6854 17.5 16.46 19.45 100 17.4 16.4
2018-06-21 07:00:00 0 6914 21.78 19.69 23.25 88.53 19.6 19.1
2018-06-21 08:00:00 0 7030 23.07 22.19 24.25 82.96 19.8 19.1
2018-06-21 09:00:00 0 7080 26.03 25.07 27.3 63.69 18.3 17.6
2018-06-21 10:00:00 0 7186 28.43 27.2 30.11 50.14 16.7 14.7
2018-06-21 11:00:00 0 7226 30.22 29.55 30.98 42.11 15.6 14.9
2018-06-21 12:00:00 0 7216 31.54 30.38 32.48 37.07 14.8 13.8
2018-06-21 13:00:00 0 7226 31.52 30.8 32.43 38.41 15.3 14.5
2018-06-21 14:00:00 0 7236 31.1 30.03 32.28 39.45 15.3 14.1
2018-06-21 15:00:00 0 7186 30.02 29.58 31.44 46.06 16.8 15.4
2018-06-21 16:00:00 0 7216 30.48 29.46 31.17 48.78 18.1 17.5
2018-06-21 17:00:00 0 7186 30.62 29.21 31.65 47.23 17.8 15.9
2018-06-21 18:00:00 0 7216 27.48 26.53 28.67 55.02 17.4 16.7
2018-06-21 19:00:00 0 7216 25.78 25.21 26.49 63.68 18.1 17.5
2018-06-21 20:00:00 0 6914 24.61 23.87 25.11 71.87 19 18.8
2018-06-21 21:00:00 0 6874 23.12 22.54 23.74 82.72 19.8 19.4
2018-06-21 22:00:00 0 6864 22.14 21.82 22.51 88.04 19.9 19.8
2018-06-21 23:00:00 0 6874 21.7 21.27 21.91 87.16 19.3 19.1
2018-06-22 00:00:00 0 6854 20.92 20.77 21.14 90.56 19.1 19
2018-06-22 01:00:00 0 6844 20.98 20.55 21.21 86.8 18.5 18.2
2018-06-22 02:00:00 0 6844 20.04 19.58 20.5 90.06 18.2 18
2018-06-22 03:00:00 0 6826 19.81 19.68 20.08 92.08 18.3 18.1
2018-06-22 04:00:00 0 6816 19.75 19.65 19.97 91.44 18.1 17.9
2018-06-22 05:00:00 0 6816 19.57 18.91 20.55 94.04 18.4 17.2
2018-06-22 06:00:00 0.4 6834 16.82 15.98 19.84 88 14.6 13.5
2018-06-22 07:00:00 0 6894 16.34 16.1 16.6 88.33 14.3 13.7
2018-06-22 08:00:00 0 7098 17.09 16.5 17.67 83.5 14.1 13.8
2018-06-22 09:00:00 0 7176 16.92 16.14 17.66 85.23 14.3 13